Time;durP1;ratioP1;P1;durP2;ratioP2;P2;SDS_P1;SDS_P2;PMS_P1;PMS_P2;Temp;Humidity;BMP_temperature;BMP_pressure;BME280_temperature;BME280_humidity;BME280_pressure;Samples;Min_cycle;Max_cycle;Signal;HPM_P1;HPM_P2
2022/08/27 00:00:46;;;;;;;8.30;3.77;;;;;;;23.00;43.09;99863.02;1707606;82;22482;-72
2022/08/27 00:03:13;;;;;;;9.05;4.17;;;;;;;23.01;43.09;99857.93;1699066;82;21396;-72
2022/08/27 00:05:40;;;;;;;7.33;4.20;;;;;;;23.01;43.20;99862.49;1701814;83;21417;-70
2022/08/27 00:08:07;;;;;;;8.98;4.12;;;;;;;23.00;43.31;99855.45;1699999;83;21136;-71
2022/08/27 00:10:35;;;;;;;7.08;3.72;;;;;;;23.01;43.21;99853.89;1728086;81;21062;-73
2022/08/27 00:13:03;;;;;;;7.60;4.08;;;;;;;23.01;43.51;99855.23;1722004;82;20948;-72
2022/08/27 00:15:30;;;;;;;5.30;3.70;;;;;;;23.01;43.46;99851.20;1733167;81;20996;-72
2022/08/27 00:17:57;;;;;;;8.40;3.80;;;;;;;23.01;43.55;99839.59;1734179;81;21106;-73
2022/08/27 00:20:25;;;;;;;11.45;3.95;;;;;;;23.01;43.84;99848.50;1673988;84;20956;-71
2022/08/27 00:22:52;;;;;;;6.70;4.08;;;;;;;23.01;43.96;99843.64;1734114;81;21022;-72
2022/08/27 00:25:19;;;;;;;8.60;3.80;;;;;;;22.99;44.15;99847.08;1733965;81;22210;-72
2022/08/27 00:27:45;;;;;;;8.30;3.70;;;;;;;22.96;44.28;99846.96;1704236;82;21008;-70
2022/08/27 00:30:15;;;;;;;9.58;3.75;;;;;;;22.97;44.40;99846.44;1729058;82;21398;-72
2022/08/27 00:32:42;;;;;;;8.75;4.00;;;;;;;22.96;44.69;99842.92;1714473;82;21414;-71
2022/08/27 00:35:09;;;;;;;12.30;4.17;;;;;;;22.94;45.59;99845.02;1734236;81;21047;-71
2022/08/27 00:37:36;;;;;;;6.75;4.08;;;;;;;22.85;47.16;99828.27;1734961;81;21724;-72
2022/08/27 00:40:05;;;;;;;12.78;4.42;;;;;;;22.73;48.81;99822.41;1704050;84;20980;-71
2022/08/27 00:42:32;;;;;;;12.23;4.58;;;;;;;22.62;50.66;99828.47;1733679;81;21015;-71
2022/08/27 00:44:59;;;;;;;13.22;4.40;;;;;;;22.45;52.21;99823.55;1733893;82;21611;-71
2022/08/27 00:47:29;;;;;;;7.28;4.40;;;;;;;22.29;53.35;99821.31;1734239;81;20984;-71
2022/08/27 00:50:00;;;;;;;10.38;4.65;;;;;;;22.15;54.42;99816.50;1734105;81;21813;-71
2022/08/27 00:52:34;;;;;;;9.40;4.33;;;;;;;22.04;55.27;99813.60;1733784;81;21055;-71
2022/08/27 00:55:17;;;;;;;7.03;4.60;;;;;;;21.92;56.04;99811.55;1675372;84;21024;-71
2022/08/27 00:57:46;;;;;;;7.47;3.97;;;;;;;21.84;56.45;99814.45;1734252;81;21077;-71
2022/08/27 01:00:16;;;;;;;8.60;4.50;;;;;;;21.77;57.27;99813.62;1734155;82;21449;-72
2022/08/27 01:02:45;;;;;;;10.48;4.50;;;;;;;21.71;57.78;99815.80;1733731;82;21867;-71
2022/08/27 01:05:15;;;;;;;6.87;4.47;;;;;;;21.70;57.89;99826.23;1721085;81;21319;-71
2022/08/27 01:07:46;;;;;;;6.47;4.25;;;;;;;21.67;58.33;99818.08;1685032;82;20973;-72
2022/08/27 01:10:17;;;;;;;7.15;4.50;;;;;;;21.65;58.49;99822.02;1697637;83;21004;-72
2022/08/27 01:12:44;;;;;;;10.82;4.72;;;;;;;21.62;58.80;99817.89;1698413;83;20969;-71
2022/08/27 01:15:13;;;;;;;8.90;5.17;;;;;;;21.59;58.96;99814.25;1699099;83;21989;-72
2022/08/27 01:17:41;;;;;;;10.80;4.37;;;;;;;21.56;59.21;99814.67;1721452;81;20964;-72
2022/08/27 01:20:16;;;;;;;9.30;4.42;;;;;;;21.54;59.37;99815.41;1723614;81;21023;-71
2022/08/27 01:22:58;;;;;;;12.45;4.85;;;;;;;21.52;59.63;99813.94;1721483;81;20976;-71
2022/08/27 01:25:25;;;;;;;8.63;4.35;;;;;;;21.51;59.77;99813.62;1717991;81;21071;-71
2022/08/27 01:27:52;;;;;;;8.53;3.90;;;;;;;21.50;59.15;99818.70;1721465;81;21815;-71
2022/08/27 01:30:20;;;;;;;8.23;3.30;;;;;;;21.51;57.59;99819.83;1700962;81;21016;-72
2022/08/27 01:32:47;;;;;;;5.65;2.98;;;;;;;21.60;56.16;99817.25;1721030;83;21497;-71
2022/08/27 01:35:14;;;;;;;9.30;3.10;;;;;;;21.71;55.05;99824.71;1721720;81;20967;-71
2022/08/27 01:37:42;;;;;;;10.28;3.10;;;;;;;21.83;54.25;99820.88;1721291;81;20984;-71
2022/08/27 01:40:10;;;;;;;8.28;2.72;;;;;;;21.95;52.94;99821.06;1721551;81;22221;-73
2022/08/27 01:42:39;;;;;;;7.22;2.70;;;;;;;22.07;52.37;99823.96;1721225;81;20988;-74
2022/08/27 01:45:09;;;;;;;11.05;3.00;;;;;;;22.17;51.90;99823.83;1722523;81;21102;-72
2022/08/27 01:47:36;;;;;;;6.45;3.05;;;;;;;22.25;51.60;99822.78;1721177;81;21557;-71
2022/08/27 01:50:10;;;;;;;9.45;2.67;;;;;;;22.31;51.08;99825.16;1721904;81;21008;-71
2022/08/27 01:52:37;;;;;;;8.68;2.80;;;;;;;22.36;50.99;99816.75;1722089;81;22648;-72
2022/08/27 01:55:07;;;;;;;7.50;2.47;;;;;;;22.40;50.58;99813.13;1723031;81;20999;-71
2022/08/27 01:57:34;;;;;;;7.97;2.80;;;;;;;22.46;50.39;99817.64;1721155;81;21024;-71
2022/08/27 02:00:11;;;;;;;5.42;2.70;;;;;;;22.48;50.70;99800.76;1720962;81;21618;-71
2022/08/27 02:02:42;;;;;;;8.60;2.80;;;;;;;22.50;51.08;99806.78;1720193;81;20984;-72
2022/08/27 02:05:10;;;;;;;7.12;2.75;;;;;;;22.50;51.49;99804.91;1726701;81;21809;-72
2022/08/27 02:07:37;;;;;;;10.75;2.87;;;;;;;22.48;51.87;99798.89;1728909;81;20999;-72
2022/08/27 02:10:07;;;;;;;7.33;2.65;;;;;;;22.47;51.54;99804.49;1732131;81;21051;-73
2022/08/27 02:12:33;;;;;;;8.20;3.05;;;;;;;22.47;51.63;99805.84;1728457;81;21101;-72
2022/08/27 02:15:03;;;;;;;7.85;2.90;;;;;;;22.46;51.79;99801.50;1705762;82;20996;-72
2022/08/27 02:17:30;;;;;;;12.23;3.10;;;;;;;22.46;51.00;99798.29;1728795;81;21947;-71
2022/08/27 02:19:57;;;;;;;6.60;2.65;;;;;;;22.50;50.73;99796.84;1732176;81;21051;-71
2022/08/27 02:22:25;;;;;;;5.90;2.87;;;;;;;22.55;50.83;99801.05;1730257;81;21529;-72
2022/08/27 02:24:52;;;;;;;6.15;2.92;;;;;;;22.57;51.02;99805.69;1729525;81;21174;-72
2022/08/27 02:27:20;;;;;;;7.62;3.10;;;;;;;22.58;51.15;99803.83;1732144;81;21430;-72
2022/08/27 02:29:46;;;;;;;5.67;2.90;;;;;;;22.59;51.14;99806.02;1732084;81;21818;-72
2022/08/27 02:32:14;;;;;;;6.90;2.70;;;;;;;22.60;50.79;99808.50;1729392;81;21016;-72
2022/08/27 02:34:41;;;;;;;6.33;2.90;;;;;;;22.61;50.42;99810.14;1728712;81;21344;-71
2022/08/27 02:37:07;;;;;;;9.88;3.12;;;;;;;22.64;50.17;99811.05;1726643;81;21031;-72
2022/08/27 02:39:34;;;;;;;7.70;3.08;;;;;;;22.67;50.08;99809.79;1726832;81;21075;-72
2022/08/27 02:42:00;;;;;;;6.45;3.20;;;;;;;22.68;49.41;99816.33;1726562;81;22213;-72
2022/08/27 02:44:27;;;;;;;8.43;3.10;;;;;;;22.69;48.56;99812.60;1729282;81;21027;-71
2022/08/27 02:46:53;;;;;;;5.87;2.70;;;;;;;22.72;48.34;99810.81;1727827;81;21080;-73
2022/08/27 02:49:20;;;;;;;9.68;3.00;;;;;;;22.76;47.92;99817.41;1726418;83;21099;-72
2022/08/27 02:51:46;;;;;;;9.48;3.00;;;;;;;22.78;47.67;99815.88;1729213;81;21004;-72
2022/08/27 02:54:13;;;;;;;6.00;2.90;;;;;;;22.80;47.18;99809.75;1700757;81;21724;-72
2022/08/27 02:56:39;;;;;;;7.12;2.90;;;;;;;22.85;46.93;99816.67;1728366;81;21011;-72
2022/08/27 02:59:06;;;;;;;5.65;2.87;;;;;;;22.89;46.76;99818.44;1726604;81;21043;-72
2022/08/27 03:01:33;;;;;;;7.20;2.80;;;;;;;22.91;46.59;99815.00;1728826;81;20971;-72
2022/08/27 03:04:00;;;;;;;9.48;2.85;;;;;;;22.93;46.57;99818.30;1730517;81;21158;-71
2022/08/27 03:06:26;;;;;;;9.13;2.77;;;;;;;22.94;46.28;99819.95;1730187;81;21878;-72
2022/08/27 03:08:53;;;;;;;7.87;3.00;;;;;;;22.94;46.34;99815.39;1726465;82;21479;-71
2022/08/27 03:11:22;;;;;;;6.45;2.83;;;;;;;22.96;46.34;99815.98;1731072;82;21001;-71
2022/08/27 03:13:49;;;;;;;6.75;2.92;;;;;;;22.98;46.32;99818.49;1728267;81;21000;-72
2022/08/27 03:16:15;;;;;;;6.47;2.95;;;;;;;22.99;46.14;99824.18;1727221;81;21086;-72
2022/08/27 03:18:42;;;;;;;5.90;2.83;;;;;;;22.99;46.14;99821.48;1727579;81;22178;-72
2022/08/27 03:21:08;;;;;;;6.35;3.10;;;;;;;23.00;46.06;99829.87;1729368;81;20996;-71
2022/08/27 03:23:35;;;;;;;4.75;2.75;;;;;;;23.01;46.15;99828.30;1686919;83;21142;-72
2022/08/27 03:26:04;;;;;;;7.05;3.02;;;;;;;23.00;46.17;99826.66;1702918;82;20987;-71
2022/08/27 03:28:33;;;;;;;6.17;2.90;;;;;;;23.00;45.70;99831.22;1717539;81;21035;-71
2022/08/27 03:31:03;;;;;;;7.17;2.98;;;;;;;22.98;45.67;99831.44;1728771;81;21935;-71
2022/08/27 03:33:34;;;;;;;7.30;3.10;;;;;;;22.97;45.57;99828.44;1732071;82;20988;-72
2022/08/27 03:36:00;;;;;;;5.12;2.77;;;;;;;22.97;45.70;99830.28;1728861;81;21035;-71
2022/08/27 03:38:27;;;;;;;9.38;3.02;;;;;;;22.95;45.79;99830.50;1726409;82;21059;-71
2022/08/27 03:40:54;;;;;;;6.72;2.87;;;;;;;22.95;45.84;99831.02;1728024;81;20952;-72
2022/08/27 03:43:21;;;;;;;9.38;2.90;;;;;;;22.92;45.60;99830.94;1726616;81;21925;-71
2022/08/27 03:45:48;;;;;;;4.67;2.85;;;;;;;22.91;45.28;99827.13;1728308;81;21063;-71
2022/08/27 03:48:15;;;;;;;6.17;3.30;;;;;;;22.90;45.33;99825.47;1732070;82;21039;-70
2022/08/27 03:50:43;;;;;;;7.45;2.80;;;;;;;22.89;45.51;99830.56;1730483;81;21537;-71
2022/08/27 03:53:10;;;;;;;5.28;3.08;;;;;;;22.90;45.73;99837.59;1724027;81;20983;-71
2022/08/27 03:55:36;;;;;;;5.40;2.90;;;;;;;22.88;45.93;99829.73;1730858;81;21709;-71
2022/08/27 03:58:02;;;;;;;9.83;3.00;;;;;;;22.87;46.13;99831.27;1732515;81;21033;-72
2022/08/27 04:00:29;;;;;;;6.67;3.15;;;;;;;22.86;46.39;99825.06;1726977;81;21031;-74
2022/08/27 04:02:56;;;;;;;5.28;2.85;;;;;;;22.83;46.31;99824.94;1726752;81;21083;-72
2022/08/27 04:05:22;;;;;;;7.33;3.12;;;;;;;22.81;46.53;99825.69;1718951;82;21004;-72
2022/08/27 04:07:50;;;;;;;7.85;3.22;;;;;;;22.81;46.58;99826.20;1719455;82;20945;-71
2022/08/27 04:10:16;;;;;;;11.18;3.05;;;;;;;22.81;46.74;99825.69;1716637;82;21024;-73
2022/08/27 04:12:44;;;;;;;5.50;3.10;;;;;;;22.80;46.28;99820.00;1715799;82;20984;-72
2022/08/27 04:15:11;;;;;;;5.47;2.77;;;;;;;22.83;45.84;99820.08;1716086;82;20969;-73
2022/08/27 04:17:38;;;;;;;6.47;2.92;;;;;;;22.87;45.65;99817.80;1695342;82;21047;-72
2022/08/27 04:20:06;;;;;;;6.60;2.92;;;;;;;22.89;45.15;99813.05;1736780;81;21811;-71
2022/08/27 04:22:33;;;;;;;7.53;3.40;;;;;;;22.93;44.90;99816.95;1728385;81;21007;-71
2022/08/27 04:25:00;;;;;;;5.85;3.20;;;;;;;22.96;44.25;99807.91;1686669;83;21023;-71
2022/08/27 04:27:27;;;;;;;6.75;2.95;;;;;;;23.01;44.05;99817.53;1723976;81;21054;-71
2022/08/27 04:29:58;;;;;;;7.30;3.12;;;;;;;23.06;44.21;99817.69;1718687;82;20987;-72
2022/08/27 04:32:26;;;;;;;6.12;3.12;;;;;;;23.08;44.44;99810.24;1700535;82;21894;-71
2022/08/27 04:34:54;;;;;;;7.22;3.08;;;;;;;23.11;44.91;99811.67;1724707;82;21076;-71
2022/08/27 04:37:21;;;;;;;8.70;3.20;;;;;;;23.13;45.37;99810.92;1721704;81;20972;-72
2022/08/27 04:39:48;;;;;;;6.53;3.30;;;;;;;23.16;45.81;99805.61;1719431;82;21039;-70
2022/08/27 04:42:19;;;;;;;6.90;3.20;;;;;;;23.17;45.99;99802.73;1715662;82;21107;-72
2022/08/27 04:44:46;;;;;;;32.35;29.00;;;;;;;23.20;46.34;99803.63;1716089;82;21793;-71
2022/08/27 04:47:12;;;;;;;27.45;20.90;;;;;;;23.22;45.90;99804.75;1719790;82;20953;-70
2022/08/27 04:49:39;;;;;;;13.75;11.20;;;;;;;23.25;45.82;99805.66;1719386;82;21028;-72
2022/08/27 04:52:06;;;;;;;12.93;10.95;;;;;;;23.30;45.77;99806.66;1720548;82;21103;-73
2022/08/27 04:54:33;;;;;;;10.63;7.37;;;;;;;23.35;45.49;99802.78;1717970;82;21062;-71
2022/08/27 04:57:04;;;;;;;12.82;11.35;;;;;;;23.41;45.37;99799.22;1718342;82;21795;-71
2022/08/27 04:59:31;;;;;;;6.53;4.03;;;;;;;23.47;45.29;99802.92;1721291;82;20953;-70
2022/08/27 05:01:59;;;;;;;6.22;3.80;;;;;;;23.53;45.11;99807.41;1721354;83;20989;-70
2022/08/27 05:04:27;;;;;;;6.83;3.87;;;;;;;23.61;45.21;99809.87;1718926;82;21071;-71
2022/08/27 05:06:56;;;;;;;7.85;3.67;;;;;;;23.68;44.87;99811.17;1715680;83;21019;-71
2022/08/27 05:09:23;;;;;;;8.28;3.60;;;;;;;23.75;44.80;99814.64;1720776;82;21593;-69
2022/08/27 05:11:53;;;;;;;6.17;3.70;;;;;;;23.83;44.90;99818.37;1721236;82;20933;-69
2022/08/27 05:14:21;;;;;;;8.50;4.28;;;;;;;23.90;44.88;99819.16;1742081;80;20979;-69
2022/08/27 05:16:47;;;;;;;8.25;4.12;;;;;;;23.98;45.03;99822.91;1730972;82;21063;-71
2022/08/27 05:19:15;;;;;;;10.45;4.75;;;;;;;24.05;44.71;99820.16;1743847;81;20941;-73
2022/08/27 05:21:47;;;;;;;8.85;4.58;;;;;;;24.17;43.98;99813.50;1692858;83;21831;-71
2022/08/27 05:24:13;;;;;;;10.80;4.65;;;;;;;24.28;43.98;99815.44;1710361;83;21022;-71
2022/08/27 05:26:40;;;;;;;11.93;4.92;;;;;;;24.38;42.97;99811.73;1709070;82;21024;-73
2022/08/27 05:29:06;;;;;;;11.70;5.00;;;;;;;24.49;42.83;99817.71;1747337;80;21015;-70
2022/08/27 05:31:34;;;;;;;11.97;4.97;;;;;;;24.61;42.80;99802.09;1746729;82;21047;-72
2022/08/27 05:34:00;;;;;;;8.95;4.87;;;;;;;24.76;42.38;99806.59;1723280;81;21871;-71
2022/08/27 05:36:29;;;;;;;8.83;4.87;;;;;;;24.89;42.05;99802.34;1706755;84;21536;-71
2022/08/27 05:38:57;;;;;;;7.95;4.72;;;;;;;25.02;41.44;99795.98;1706889;83;21041;-71
2022/08/27 05:41:28;;;;;;;12.00;4.95;;;;;;;25.13;40.80;99804.65;1706702;83;21462;-70
2022/08/27 05:44:04;;;;;;;8.50;5.22;;;;;;;25.22;40.25;99796.51;1696612;84;21289;-71
2022/08/27 05:46:31;;;;;;;13.58;6.58;;;;;;;25.29;39.89;99790.48;1696713;84;21947;-72
2022/08/27 05:48:58;;;;;;;16.32;9.65;;;;;;;25.33;39.65;99798.94;1696801;84;21096;-71
2022/08/27 05:51:36;;;;;;;9.53;5.40;;;;;;;25.39;39.58;99802.89;1696525;84;21036;-71
2022/08/27 05:54:06;;;;;;;13.03;6.78;;;;;;;25.43;38.67;99795.66;1696656;84;21040;-72
2022/08/27 05:56:36;;;;;;;12.47;6.72;;;;;;;25.45;39.07;99794.37;1695819;84;21012;-72
2022/08/27 06:01:50;;;;;;;14.35;5.42;;;;;;;25.50;37.82;99793.16;1717896;82;21098;-71
2022/08/27 06:04:17;;;;;;;18.67;7.80;;;;;;;25.50;37.50;99793.16;1709483;82;21505;-71
2022/08/27 06:06:44;;;;;;;16.37;8.58;;;;;;;25.49;37.68;99791.51;1700742;84;21052;-71
2022/08/27 06:09:15;;;;;;;14.07;6.08;;;;;;;25.50;37.41;99796.39;1706693;84;21135;-70
2022/08/27 06:11:44;;;;;;;43.85;29.67;;;;;;;25.46;37.83;99787.90;1695242;84;22525;-70
2022/08/27 06:14:11;;;;;;;18.07;11.33;;;;;;;25.47;37.97;99790.89;1712380;82;20999;-69
2022/08/27 06:16:38;;;;;;;15.85;8.38;;;;;;;25.51;38.53;99788.56;1694775;82;21052;-70
2022/08/27 06:19:05;;;;;;;23.67;6.25;;;;;;;25.56;38.39;99789.50;1696055;82;21006;-71
2022/08/27 06:21:32;;;;;;;14.90;5.33;;;;;;;25.60;38.49;99790.69;1687702;82;21093;-71
2022/08/27 06:23:58;;;;;;;16.70;5.95;;;;;;;25.63;38.09;99794.27;1687171;82;21814;-71
2022/08/27 06:26:25;;;;;;;10.53;5.00;;;;;;;25.59;38.01;99790.41;1697771;82;21070;-69
2022/08/27 06:28:51;;;;;;;19.02;5.60;;;;;;;25.48;37.83;99786.30;1685862;82;21063;-70
2022/08/27 06:31:25;;;;;;;11.68;5.30;;;;;;;25.33;38.33;99784.89;1707979;81;21388;-69
2022/08/27 06:33:51;;;;;;;;;;;;;;;25.27;38.43;99787.69;1734288;81;21026;-71
2022/08/27 06:36:22;;;;;;;72.40;18.82;;;;;;;25.20;38.70;99791.87;1736221;81;21843;-70
2022/08/27 06:38:48;;;;;;;57.48;16.73;;;;;;;25.21;38.92;99791.34;1742830;81;21044;-71
2022/08/27 06:41:18;;;;;;;25.60;7.53;;;;;;;25.29;38.99;99799.12;1748803;81;21038;-71
2022/08/27 06:43:44;;;;;;;39.08;10.93;;;;;;;25.39;38.71;99796.67;1753097;81;21533;-71
2022/08/27 06:46:14;;;;;;;61.05;14.47;;;;;;;25.48;38.43;99800.69;1753647;81;21078;-69
2022/08/27 06:48:43;;;;;;;91.82;19.40;;;;;;;25.55;38.21;99791.91;1753045;81;21823;-67
2022/08/27 06:51:15;;;;;;;89.28;20.82;;;;;;;25.63;38.41;99783.45;1730502;81;21046;-69
2022/08/27 06:53:43;;;;;;;84.13;19.15;;;;;;;25.69;38.17;99782.52;1725004;83;21039;-69
2022/08/27 06:56:11;;;;;;;93.25;26.93;;;;;;;25.75;37.84;99789.42;1728403;81;21077;-71
2022/08/27 06:58:37;;;;;;;59.77;17.77;;;;;;;25.77;37.70;99781.39;1741662;82;21401;-69
2022/08/27 07:01:21;;;;;;;34.35;9.00;;;;;;;25.82;37.88;99781.48;1727518;81;22456;-71
2022/08/27 07:03:47;;;;;;;35.65;8.40;;;;;;;25.81;36.91;99777.67;1716108;83;21024;-70
2022/08/27 07:06:15;;;;;;;19.45;6.30;;;;;;;25.75;36.78;99779.95;1700292;83;21114;-70
2022/08/27 07:08:42;;;;;;;31.80;18.80;;;;;;;25.66;37.49;99782.97;1665498;84;21057;-70
2022/08/27 07:11:11;;;;;;;34.88;20.65;;;;;;;25.70;37.47;99777.97;1667185;86;21040;-70
2022/08/27 07:13:39;;;;;;;16.07;7.25;;;;;;;25.77;37.35;99781.89;1665664;86;21848;-69
2022/08/27 07:16:07;;;;;;;15.03;5.95;;;;;;;25.80;37.23;99777.38;1695123;84;21054;-70
2022/08/27 07:18:34;;;;;;;13.03;5.47;;;;;;;25.82;37.38;99790.14;1695079;83;21501;-70
2022/08/27 07:21:02;;;;;;;13.72;5.55;;;;;;;25.81;38.06;99783.08;1695134;84;21520;-70
2022/08/27 07:23:31;;;;;;;19.60;5.87;;;;;;;25.88;38.56;99781.91;1694272;84;21076;-69
2022/08/27 07:25:58;;;;;;;16.00;5.60;;;;;;;25.97;38.05;99785.09;1703275;83;21932;-70
2022/08/27 07:28:25;;;;;;;18.55;5.72;;;;;;;26.06;38.13;99784.20;1715120;83;21050;-70
2022/08/27 07:30:51;;;;;;;18.70;5.10;;;;;;;26.13;37.80;99791.64;1695249;83;21060;-70
2022/08/27 07:33:18;;;;;;;17.17;5.75;;;;;;;26.17;38.46;99792.30;1715097;82;21336;-72
2022/08/27 07:35:47;;;;;;;16.15;5.60;;;;;;;26.25;37.46;99778.39;1695291;83;21132;-70
2022/08/27 07:38:13;;;;;;;24.40;5.58;;;;;;;26.31;37.26;99775.78;1715335;83;22030;-71
2022/08/27 07:40:40;;;;;;;18.57;5.78;;;;;;;26.39;36.89;99776.80;1695202;83;21011;-73
2022/08/27 07:45:54;;;;;;;21.12;5.67;;;;;;;26.55;36.92;99771.16;1715142;82;21042;-70
2022/08/27 07:48:22;;;;;;;18.37;5.30;;;;;;;26.62;36.33;99772.64;1695291;83;21068;-70
2022/08/27 07:50:50;;;;;;;13.98;5.30;;;;;;;26.68;36.21;99770.33;1714604;82;21835;-71
2022/08/27 07:53:17;;;;;;;18.70;5.95;;;;;;;26.76;35.35;99767.24;1694758;83;21045;-72
2022/08/27 07:55:44;;;;;;;25.52;5.50;;;;;;;26.82;35.14;99772.20;1720422;82;21062;-70
2022/08/27 07:58:12;;;;;;;15.03;4.78;;;;;;;26.87;34.54;99766.89;1709424;83;21518;-72
2022/08/27 08:00:42;;;;;;;18.32;5.53;;;;;;;26.92;35.40;99765.62;1694721;83;21655;-71
2022/08/27 08:03:11;;;;;;;25.00;5.33;;;;;;;27.04;34.92;99780.52;1661241;86;22400;-70
2022/08/27 08:05:42;;;;;;;20.23;5.28;;;;;;;27.14;35.09;99775.27;1695969;82;21067;-70
2022/08/27 08:08:10;;;;;;;14.45;5.33;;;;;;;27.27;34.33;99776.30;1701602;83;21094;-71
2022/08/27 08:10:38;;;;;;;17.23;5.53;;;;;;;27.36;34.61;99782.97;1701637;82;21506;-70
2022/08/27 08:13:06;;;;;;;30.85;14.07;;;;;;;27.45;34.46;99779.31;1679903;83;21052;-71
2022/08/27 08:15:33;;;;;;;19.40;7.42;;;;;;;27.53;34.60;99782.97;1691397;84;21555;-70
2022/08/27 08:17:59;;;;;;;21.75;9.20;;;;;;;27.65;35.06;99778.30;1691545;84;21093;-70
2022/08/27 08:20:26;;;;;;;20.57;9.78;;;;;;;27.81;34.22;99783.44;1692113;84;21060;-71
2022/08/27 08:22:52;;;;;;;18.50;8.20;;;;;;;27.93;33.88;99783.33;1691779;84;21127;-71
2022/08/27 08:25:19;;;;;;;21.10;6.42;;;;;;;27.99;33.47;99778.27;1692110;84;21063;-70
2022/08/27 08:27:46;;;;;;;16.27;5.75;;;;;;;28.06;33.30;99775.34;1691926;84;21995;-70
2022/08/27 08:30:13;;;;;;;16.35;5.50;;;;;;;28.15;33.82;99776.56;1691698;84;21094;-72
2022/08/27 08:32:42;;;;;;;22.05;4.90;;;;;;;28.20;32.79;99774.74;1691785;84;21063;-70
2022/08/27 08:35:10;;;;;;;12.90;4.87;;;;;;;28.18;32.41;99777.41;1691743;84;21018;-71
2022/08/27 08:37:40;;;;;;;15.08;4.75;;;;;;;28.19;32.91;99769.03;1691634;84;21005;-70
2022/08/27 08:40:09;;;;;;;17.20;5.62;;;;;;;28.29;32.61;99766.19;1670110;84;21973;-70
2022/08/27 08:42:46;;;;;;;14.75;4.80;;;;;;;28.37;32.75;99763.83;1691866;84;21061;-70
2022/08/27 08:45:15;;;;;;;12.75;4.33;;;;;;;28.50;32.55;99760.74;1691787;84;21036;-71
2022/08/27 08:47:48;;;;;;;16.00;4.55;;;;;;;28.68;31.99;99758.77;1691771;84;21073;-70
2022/08/27 08:50:33;;;;;;;30.37;5.17;;;;;;;28.83;31.90;99756.19;1691489;84;21052;-70
2022/08/27 08:53:05;;;;;;;18.92;4.25;;;;;;;28.99;31.08;99759.38;1692040;84;21932;-71
2022/08/27 08:55:51;;;;;;;15.13;4.28;;;;;;;29.15;30.73;99748.11;1710873;83;21602;-70
2022/08/27 08:58:42;;;;;;;11.55;4.10;;;;;;;29.24;30.60;99747.92;1726379;82;21005;-70
2022/08/27 09:01:09;;;;;;;21.20;4.10;;;;;;;29.34;28.64;99756.70;1708406;83;21048;-71
2022/08/27 09:03:40;;;;;;;13.43;3.70;;;;;;;29.32;28.77;99747.95;1708352;84;21551;-71
2022/08/27 09:06:32;;;;;;;23.60;3.98;;;;;;;29.33;29.15;99742.79;1677659;83;21841;-71
2022/08/27 09:09:03;;;;;;;25.65;4.10;;;;;;;29.35;28.18;99746.91;1712970;82;21062;-70
2022/08/27 09:11:42;;;;;;;15.55;3.85;;;;;;;29.33;28.08;99731.91;1733763;82;21032;-70
2022/08/27 09:14:39;;;;;;;18.50;3.98;;;;;;;29.39;28.75;99742.30;1708281;82;21084;-69
2022/08/27 09:17:06;;;;;;;15.75;3.40;;;;;;;29.52;27.46;99734.53;1726536;82;21075;-68
2022/08/27 09:19:33;;;;;;;16.70;3.80;;;;;;;29.67;27.23;99728.38;1708169;82;21820;-68
2022/08/27 09:22:05;;;;;;;36.75;3.98;;;;;;;30.00;26.52;99724.46;1720825;82;21508;-69
2022/08/27 09:24:56;;;;;;;12.70;3.45;;;;;;;30.00;26.52;99724.46;1677615;83;21049;-70
2022/08/27 09:27:23;;;;;;;15.75;3.33;;;;;;;30.15;27.24;99720.48;1723870;83;21021;-69
2022/08/27 09:29:53;;;;;;;23.32;3.92;;;;;;;30.36;27.70;99726.01;1680753;83;21336;-69
2022/08/27 09:32:32;;;;;;;10.20;3.52;;;;;;;30.55;27.81;99718.16;1699593;83;22554;-68
2022/08/27 09:35:01;;;;;;;14.45;3.42;;;;;;;30.68;26.65;99726.66;1720516;82;22227;-69
2022/08/27 09:37:31;;;;;;;14.43;3.42;;;;;;;30.64;25.97;99735.63;1740137;82;21035;-71
2022/08/27 09:40:10;;;;;;;16.02;3.40;;;;;;;30.46;27.06;99741.84;1728393;82;21552;-69
2022/08/27 09:42:49;;;;;;;18.52;3.47;;;;;;;30.34;27.77;99748.63;1734982;80;21050;-70
2022/08/27 09:45:24;;;;;;;10.75;2.87;;;;;;;30.30;27.78;99745.59;1704774;83;22463;-68
2022/08/27 09:48:06;;;;;;;9.15;3.37;;;;;;;30.42;27.13;99733.94;1702353;83;21047;-68
2022/08/27 09:50:49;;;;;;;13.62;3.10;;;;;;;30.59;26.40;99739.69;1737766;82;21084;-69
2022/08/27 09:53:33;;;;;;;10.35;2.83;;;;;;;30.77;26.70;99749.58;1708807;82;21449;-69
2022/08/27 09:56:07;;;;;;;9.05;2.90;;;;;;;31.00;27.35;99737.90;1711417;83;21075;-69
2022/08/27 09:58:48;;;;;;;10.45;3.12;;;;;;;31.28;26.93;99740.67;1685529;82;22619;-69
2022/08/27 10:01:28;;;;;;;13.35;2.90;;;;;;;31.53;25.58;99737.89;1711128;83;21095;-68
2022/08/27 10:04:09;;;;;;;10.90;2.83;;;;;;;31.70;25.12;99734.87;1723960;82;21023;-68
2022/08/27 10:06:36;;;;;;;11.22;2.80;;;;;;;31.82;25.09;99736.77;1723612;83;21102;-69
2022/08/27 10:09:11;;;;;;;13.78;2.87;;;;;;;31.93;25.67;99732.09;1723776;83;21056;-68
2022/08/27 10:12:18;;;;;;;8.25;2.60;;;;;;;32.08;24.74;99740.25;1725019;83;21891;-69
2022/08/27 10:14:55;;;;;;;16.37;2.77;;;;;;;32.22;23.59;99734.99;1724022;82;21554;-68
2022/08/27 10:17:46;;;;;;;7.25;2.55;;;;;;;32.36;23.73;99741.53;1728269;82;21032;-70
2022/08/27 10:20:33;;;;;;;10.82;2.72;;;;;;;32.51;23.97;99739.25;1731856;82;21011;-69
2022/08/27 10:23:28;;;;;;;10.82;2.50;;;;;;;32.73;22.64;99748.44;1713260;82;21545;-68
2022/08/27 10:26:12;;;;;;;10.25;2.60;;;;;;;32.82;21.53;99731.70;1721353;82;21818;-68
2022/08/27 10:28:56;;;;;;;8.15;2.65;;;;;;;32.88;22.15;99741.52;1713114;82;21033;-68
2022/08/27 10:31:34;;;;;;;10.08;2.20;;;;;;;33.01;20.87;99746.36;1722673;82;21044;-70
2022/08/27 10:34:29;;;;;;;10.88;2.83;;;;;;;32.88;20.75;99746.98;1717652;82;21084;-69
2022/08/27 10:37:22;;;;;;;9.58;2.47;;;;;;;32.70;20.73;99752.54;1733868;82;22136;-68
2022/08/27 10:40:05;;;;;;;15.70;2.80;;;;;;;32.57;21.53;99749.07;1700790;84;22809;-68
2022/08/27 10:42:38;;;;;;;;;;;;;;;32.51;21.18;99738.44;1711084;82;21674;-69
2022/08/27 10:45:26;;;;;;;10.08;2.67;;;;;;;32.52;21.27;99738.70;1680184;85;20207;-69
2022/08/27 10:48:16;;;;;;;9.65;2.47;;;;;;;32.57;21.62;99738.69;1716414;82;21505;-69
2022/08/27 10:50:51;;;;;;;8.05;2.62;;;;;;;32.77;21.86;99726.25;1679121;85;21075;-69
2022/08/27 10:53:41;;;;;;;12.15;2.70;;;;;;;33.00;20.78;99720.08;1709434;83;22904;-68
2022/08/27 10:56:37;;;;;;;10.93;2.70;;;;;;;33.16;21.12;99723.52;1711663;82;21605;-68
2022/08/27 10:59:30;;;;;;;9.88;2.58;;;;;;;33.45;21.28;99709.87;1698950;83;21449;-68
2022/08/27 11:02:24;;;;;;;10.15;2.67;;;;;;;33.77;20.92;99718.02;1727552;82;21043;-70
2022/08/27 11:04:56;;;;;;;7.37;2.40;;;;;;;34.03;20.51;99722.13;1728696;82;21091;-69
2022/08/27 11:07:30;;;;;;;14.63;2.60;;;;;;;34.30;20.65;99720.15;1731868;82;21821;-68
2022/08/27 11:10:17;;;;;;;8.58;2.60;;;;;;;34.37;19.93;99723.35;1738990;81;21082;-69
2022/08/27 11:12:48;;;;;;;12.55;2.72;;;;;;;34.40;20.37;99721.41;1699113;83;21008;-70
2022/08/27 11:15:30;;;;;;;7.37;2.67;;;;;;;34.42;20.22;99724.67;1721570;83;21051;-69
2022/08/27 11:18:15;;;;;;;6.25;2.72;;;;;;;34.44;20.44;99720.25;1726727;82;21098;-70
2022/08/27 11:21:05;;;;;;;6.75;2.52;;;;;;;34.54;20.33;99725.59;1736993;82;22435;-67
2022/08/27 11:23:44;;;;;;;12.78;2.52;;;;;;;34.71;19.57;99729.20;1736008;82;21035;-69
2022/08/27 11:26:13;;;;;;;8.08;2.60;;;;;;;34.82;20.16;99718.32;1708996;82;21040;-71
2022/08/27 11:28:51;;;;;;;7.15;2.33;;;;;;;34.87;19.14;99727.05;1709018;82;21059;-70
2022/08/27 11:31:44;;;;;;;9.43;2.60;;;;;;;34.77;19.35;99718.42;1709707;83;21041;-69
2022/08/27 11:34:41;;;;;;;12.13;2.83;;;;;;;34.72;19.01;99726.16;1699208;83;22565;-69
2022/08/27 11:37:13;;;;;;;12.70;2.42;;;;;;;34.67;19.44;99722.69;1733781;81;21586;-70
2022/08/27 11:39:51;;;;;;;7.85;2.30;;;;;;;34.69;19.36;99724.02;1695553;83;21440;-68
2022/08/27 11:42:44;;;;;;;7.78;2.42;;;;;;;34.68;18.98;99725.13;1704614;82;21052;-69
2022/08/27 11:45:29;;;;;;;6.90;2.65;;;;;;;34.57;18.76;99720.91;1709664;83;21441;-69
2022/08/27 11:47:59;;;;;;;11.50;2.70;;;;;;;34.27;18.79;99715.27;1691249;82;21803;-69
2022/08/27 11:50:27;;;;;;;9.95;2.42;;;;;;;34.04;19.39;99718.28;1735805;82;21017;-69
2022/08/27 11:52:58;;;;;;;9.45;2.65;;;;;;;33.88;19.43;99720.15;1703707;83;21006;-71